الصفحة الرئيسية
METAR-TAF:

METAR-TAF

مطار :

Nan, تايلاند

دائرة عرض: 18-46N, خط طول: 100-46E, ارتفاع: 200 متر

مراقبة الطقس الحالي

تاريخ ووقت الإصدار 12 دقيقة قبل الساعة 23:00UTC
ريح 3 عقدة من الجنوب, الاتجاه يتراوح بين الجنوب الشرقي و الجنوب الغربي
درجة الحرارة 24°درجة مئوية
الرطوبة 100%
ضغط 1003 hPa
الرؤية 10 كم أو أكثر
غيوم قليلة على ارتفاع 1000 قدم
غيوم مفككة على ارتفاع 3500 قدم
مطر خفيف

METAR: VTCN 252300Z 17003KT 130V220 9999 -RA FEW010 BKN035 24/24 Q1003 NOSIG

زمن: 06:12 (23:12 UTC)

توقعات

تاريخ ووقت الإصدار 6ساعات و 12 دقيقة قبل الساعة 17:00UTC
التوقعات صالحة من25 الساعة 18 UTC إلى 26 الساعة 18 UTC
ريح 5 عقدة من الجنوب
الرؤية 10 كم أو أكثر
غيوم متفرقة على ارتفاع 3000 قدم
مؤقت
من 26 الساعة 06 UTC إلى 26 الساعة 12 UTC
ريح 15 عقدة من الجنوب تتزايد حتى 25 عقدة
الرؤية: 4000 متر
غيوم قليلة على ارتفاع 2000 قدم, مزنة ركامية.
غيوم مفككة على ارتفاع 2500 قدم
عاصفة رعدية, مطر

TAF: VTCN 251700Z 2518/2618 19005KT 9999 SCT030 TEMPO 2606/2612 17015G25KT 4000 TSRA FEW020CB BKN025

أرصاد الطقس والتوقعات من أكثر من 4000 مطار (تقارير الطقس للمطار METAR والتنبؤ بالطقس بالمطارTAF).

المحطات المتاحة هي النقط الصفراء والحمراء على الخريطة.

حرك المؤشر فوق النقطة لمعرفة اسم المحطة.

ثم انقر لمعرفة أرصاد وتوقعات الطقس.

لتغيير الخارطة: اضغط على الأزرار الخضراء مع رمز الصليب الأسود للتكبير. على الزر الأخضر مع شرطة للتصغير، أو على الأسهم الخضراء للخرائط المجاورة.


METAR-TAF: